Holden, West Virginia
Current Conditions -  °F | °C
As of 6:15 PM on Friday 31 Oct 2014 (Local Time) from KSJS Reporting Station
Light Rain Light Rain  
Wind Chill: 44°   Ceiling: 900
Heat Index: 44°   Visibility: 7mi
Dew Point: 43°   Wind: 0mph
Humidity: 96%   Direction: NA
Pressure: 29.86"   Gusts: NA
Location:  37.81°N, 82.07°W
Report Text: KSJS 312215Z AUTO 00000KT 7SM -RA BKN009 OVC014 07/06 A2986 RMK AO2 T00670061
Loading
Personal Weather Stations






























Interactive Weather Map
Tropical Storm Tracking
New forecast layout! Learn more

10-Day Weather Forecast

Advertisements
Track Severe Weather on mobile